| time (UTC) | temp F | wind direction | speed knots | gust knots | rain 1hr in | rain 24hr in | rain mn in | humidity % | barometer mb |
| 20260906103048 | 65 | 355 | 0.0 | 0.0 | 0.00 | 0.00 | 0.00 | 95 | 1010.6 |
| 20260906101614 | 65 | 355 | 1.7 | 0.0 | 0.00 | 0.00 | 0.00 | 96 | 1010.7 |
| 20260906100056 | 64 | 355 | 0.0 | 0.0 | 0.00 | 0.00 | 0.00 | 95 | 1010.5 |
| 20260906094616 | 63 | 355 | 0.0 | 0.0 | 0.00 | 0.00 | 0.00 | 96 | 1010.2 |
| 20260906093040 | 63 | 355 | 0.0 | 0.0 | 0.00 | 0.00 | 0.00 | 95 | 1010.1 |
| 20260906091536 | 63 | 355 | 0.0 | 0.0 | 0.00 | 0.00 | 0.00 | 94 | 1009.8 |
| 20260906090039 | 65 | 355 | 0.9 | 0.0 | 0.00 | 0.00 | 0.00 | 95 | 1009.8 |
| 20260906084554 | 65 | 355 | 0.9 | 0.0 | 0.00 | 0.00 | 0.00 | 95 | 1009.7 |
| 20260906083058 | 65 | 355 | 0.9 | 0.0 | 0.00 | 0.00 | 0.00 | 95 | 1009.7 |
| 20260906081554 | 64 | 300 | 0.9 | 0.0 | 0.00 | 0.00 | 0.00 | 95 | 1009.7 |
| 20260906080039 | 64 | 300 | 0.0 | 0.0 | 0.00 | 0.00 | 0.00 | 94 | 1009.9 |
| 20260906074600 | 64 | 300 | 2.6 | 0.0 | 0.00 | 0.00 | 0.00 | 93 | 1009.7 |
| 20260906073054 | 65 | 298 | 0.0 | 0.0 | 0.00 | 0.00 | 0.00 | 92 | 1009.8 |
| 20260906071537 | 66 | 298 | 1.7 | 0.0 | 0.00 | 0.00 | 0.00 | 92 | 1009.6 |
| 20260906070047 | 66 | 298 | 2.6 | 0.0 | 0.00 | 0.00 | 0.00 | 92 | 1009.7 |
| 20260906064502 | 67 | 299 | 2.6 | 0.0 | 0.00 | 0.00 | 0.00 | 91 | 1009.9 |
| 20260906063040 | 67 | 299 | 2.6 | 0.0 | 0.00 | 0.00 | 0.00 | 91 | 1010.2 |
| 20260906061608 | 67 | 301 | 0.9 | 0.0 | 0.00 | 0.00 | 0.00 | 90 | 1010.3 |
| 20260906054539 | 68 | 298 | 4.3 | 0.0 | 0.00 | 0.00 | 0.00 | 88 | 1010.4 |
| 20260906053039 | 68 | 298 | 3.5 | 0.0 | 0.00 | 0.00 | 0.00 | 88 | 1010.5 |
| 20260906051601 | 68 | 313 | 0.0 | 0.0 | 0.00 | 0.00 | 0.00 | 89 | 1010.5 |
| 20260906050042 | 68 | 315 | 0.9 | 0.0 | 0.00 | 0.00 | 0.00 | 89 | 1010.7 |
| 20260906044559 | 68 | 309 | 0.9 | 0.0 | 0.00 | 0.00 | 0.00 | 89 | 1010.7 |
| 20260906043044 | 68 | 309 | 0.9 | 0.0 | 0.00 | 0.00 | 0.00 | 89 | 1010.7 |
| 20260906041552 | 68 | 311 | 1.7 | 0.0 | 0.00 | 0.00 | 0.00 | 90 | 1010.7 |
| 20260906040032 | 67 | 304 | 0.9 | 0.0 | 0.00 | 0.00 | 0.00 | 90 | 1010.6 |
| 20260906034534 | 67 | 305 | 1.7 | 0.0 | 0.00 | 0.00 | 0.00 | 90 | 1010.8 |
| 20260906033037 | 68 | 305 | 0.0 | 0.0 | 0.00 | 0.00 | 0.00 | 90 | 1010.8 |
| 20260906031629 | 68 | 305 | 1.7 | 0.0 | 0.00 | 0.00 | 0.00 | 89 | 1010.9 |
| 20260906024551 | 68 | 305 | 0.0 | 0.0 | 0.00 | 0.00 | 0.00 | 88 | 1011.2 |
| 20260906023039 | 68 | 305 | 0.0 | 0.0 | 0.00 | 0.00 | 0.00 | 88 | 1011.1 |
| 20260906021523 | 68 | 305 | 0.0 | 0.0 | 0.00 | 0.00 | 0.00 | 88 | 1010.9 |
| 20260906020020 | 69 | 305 | 1.7 | 0.0 | 0.00 | 0.00 | 0.00 | 87 | 1010.9 |
| 20260906014538 | 70 | 305 | 2.6 | 0.0 | 0.00 | 0.00 | 0.00 | 85 | 1010.6 |
| 20260906013100 | 71 | 311 | 2.6 | 0.0 | 0.00 | 0.00 | 0.00 | 83 | 1010.6 |
| 20260906011609 | 71 | 314 | 0.9 | 0.0 | 0.00 | 0.00 | 0.00 | 83 | 1010.5 |
| 20260906010015 | 71 | 315 | 2.6 | 0.0 | 0.00 | 0.00 | 0.00 | 82 | 1010.6 |
| 20260906004617 | 71 | 360 | 2.6 | 0.0 | 0.00 | 0.00 | 0.00 | 82 | 1010.2 |
| 20260906003015 | 72 | 5 | 1.7 | 0.0 | 0.00 | 0.00 | 0.00 | 82 | 1009.8 |
| 20260906001541 | 72 | 323 | 1.7 | 0.0 | 0.00 | 0.00 | 0.00 | 80 | 1009.8 |
| 20260906000040 | 74 | 309 | 2.6 | 0.0 | 0.00 | 0.00 | 0.00 | 77 | 1009.7 |
| 20260905234612 | 74 | 313 | 3.5 | 0.0 | 0.00 | 0.00 | 0.00 | 76 | 1009.6 |
| 20260905233005 | 75 | 298 | 2.6 | 0.0 | 0.00 | 0.00 | 0.00 | 74 | 1009.6 |
| 20260905231543 | 76 | 325 | 3.5 | 0.0 | 0.00 | 0.00 | 0.00 | 72 | 1009.4 |
| 20260905230106 | 76 | 294 | 3.5 | 0.0 | 0.00 | 0.00 | 0.00 | 71 | 1009.6 |
| 20260905230008 | 76 | 297 | 3.5 | 0.0 | 0.00 | 0.00 | 0.00 | 71 | 1009.7 |
| 20260905224633 | 77 | 301 | 4.3 | 0.0 | 0.00 | 0.00 | 0.00 | 69 | 1009.7 |
| 20260905223032 | 78 | 267 | 4.3 | 0.0 | 0.00 | 0.00 | 0.00 | 68 | 1009.6 |
| 20260905221616 | 79 | 296 | 5.2 | 0.0 | 0.00 | 0.00 | 0.00 | 65 | 1009.8 |
| 20260905220056 | 79 | 24 | 4.3 | 0.0 | 0.00 | 0.00 | 0.00 | 65 | 1009.8 |
| 20260905214612 | 79 | 330 | 5.2 | 0.0 | 0.00 | 0.00 | 0.00 | 62 | 1009.8 |
| 20260905213000 | 79 | 311 | 5.2 | 0.0 | 0.00 | 0.00 | 0.00 | 62 | 1010.0 |
| 20260905211610 | 79 | 300 | 4.3 | 0.0 | 0.00 | 0.00 | 0.00 | 64 | 1009.8 |
| 20260905210052 | 79 | 300 | 4.3 | 0.0 | 0.00 | 0.00 | 0.00 | 63 | 1009.7 |
| 20260905204557 | 80 | 322 | 7.0 | 0.0 | 0.00 | 0.00 | 0.00 | 63 | 1009.4 |
| 20260905203036 | 80 | 282 | 6.1 | 0.0 | 0.00 | 0.00 | 0.00 | 64 | 1009.6 |
| 20260905201539 | 78 | 289 | 6.1 | 0.0 | 0.00 | 0.00 | 0.00 | 68 | 1009.5 |
| 20260905200020 | 77 | 282 | 6.1 | 0.0 | 0.00 | 0.00 | 0.00 | 70 | 1009.4 |
| 20260905194501 | 76 | 281 | 6.1 | 0.0 | 0.00 | 0.00 | 0.00 | 72 | 1009.2 |
| 20260905193018 | 76 | 310 | 5.2 | 0.0 | 0.00 | 0.00 | 0.00 | 72 | 1009.1 |
| 20260905191528 | 75 | 315 | 8.7 | 0.0 | 0.00 | 0.00 | 0.00 | 71 | 1008.9 |
| 20260905190019 | 75 | 305 | 8.7 | 0.0 | 0.00 | 0.00 | 0.00 | 70 | 1008.8 |
| 20260905184504 | 73 | 279 | 6.1 | 0.0 | 0.00 | 0.00 | 0.00 | 77 | 1009.1 |
| 20260905183019 | 72 | 300 | 7.8 | 0.0 | 0.00 | 0.00 | 0.00 | 77 | 1009.4 |
| 20260905181625 | 70 | 286 | 6.1 | 0.0 | 0.00 | 0.00 | 0.00 | 83 | 1009.7 |
| 20260905180058 | 70 | 286 | 5.2 | 0.0 | 0.00 | 0.00 | 0.00 | 83 | 1009.5 |
| 20260905174606 | 69 | 355 | 5.2 | 0.0 | 0.00 | 0.00 | 0.00 | 85 | 1010.5 |
| 20260905173056 | 69 | 311 | 6.1 | 0.0 | 0.00 | 0.00 | 0.00 | 84 | 1011.4 |
| 20260905171603 | 71 | 315 | 6.1 | 0.0 | 0.00 | 0.00 | 0.00 | 81 | 1012.1 |
| 20260905170003 | 75 | 5 | 9.6 | 0.0 | 0.00 | 0.00 | 0.00 | 72 | 1012.9 |
| 20260905164634 | 79 | 5 | 7.0 | 0.0 | 0.00 | 0.00 | 0.00 | 75 | 1012.0 |
| 20260905163004 | 81 | 311 | 6.1 | 0.0 | 0.00 | 0.00 | 0.00 | 73 | 1012.1 |
| 20260905161610 | 82 | 360 | 6.1 | 0.0 | 0.00 | 0.00 | 0.00 | 71 | 1011.8 |
| 20260905160032 | 82 | 360 | 5.2 | 0.0 | 0.00 | 0.00 | 0.00 | 71 | 1011.4 |
| 20260905154619 | 82 | 11 | 7.8 | 0.0 | 0.00 | 0.00 | 0.00 | 71 | 1011.7 |
| 20260905153002 | 81 | 5 | 7.0 | 0.0 | 0.00 | 0.00 | 0.00 | 76 | 1011.8 |
| 20260905151538 | 81 | 323 | 4.3 | 0.0 | 0.00 | 0.00 | 0.00 | 77 | 1011.6 |
| 20260905150059 | 81 | 306 | 7.8 | 0.0 | 0.00 | 0.00 | 0.00 | 76 | 1011.5 |
| 20260905144513 | 80 | 302 | 7.8 | 0.0 | 0.00 | 0.00 | 0.00 | 78 | 1011.5 |
| 20260905143025 | 79 | 308 | 9.6 | 0.0 | 0.00 | 0.00 | 0.00 | 78 | 1011.6 |
| 20260905141543 | 79 | 306 | 8.7 | 0.0 | 0.00 | 0.00 | 0.00 | 78 | 1011.7 |
| 20260905140021 | 78 | 298 | 10.4 | 0.0 | 0.00 | 0.00 | 0.00 | 79 | 1011.5 |
| 20260905134612 | 79 | 286 | 6.1 | 0.0 | 0.00 | 0.00 | 0.00 | 79 | 1011.5 |
| 20260905133056 | 78 | 302 | 5.2 | 0.0 | 0.00 | 0.00 | 0.00 | 80 | 1011.5 |
| 20260905131521 | 77 | 293 | 5.2 | 0.0 | 0.00 | 0.00 | 0.00 | 81 | 1011.8 |
| 20260905130027 | 76 | 310 | 2.6 | 0.0 | 0.00 | 0.00 | 0.00 | 83 | 1012.0 |
| 20260905124637 | 75 | 298 | 2.6 | 0.0 | 0.00 | 0.00 | 0.00 | 84 | 1012.0 |
| 20260905123022 | 74 | 298 | 2.6 | 0.0 | 0.00 | 0.00 | 0.00 | 85 | 1012.1 |
| 20260905121540 | 74 | 302 | 3.5 | 0.0 | 0.00 | 0.00 | 0.00 | 85 | 1012.1 |
| 20260905120018 | 72 | 296 | 4.3 | 0.0 | 0.00 | 0.00 | 0.00 | 86 | 1011.9 |
| 20260905114625 | 71 | 300 | 5.2 | 0.0 | 0.00 | 0.00 | 0.00 | 87 | 1011.7 |
| 20260905113100 | 69 | 310 | 5.2 | 0.0 | 0.00 | 0.00 | 0.00 | 89 | 1011.6 |
| 20260905111618 | 68 | 298 | 3.5 | 0.0 | 0.00 | 0.00 | 0.00 | 90 | 1011.5 |
| 20260905110101 | 67 | 298 | 3.5 | 0.0 | 0.00 | 0.00 | 0.00 | 90 | 1011.5 |
| 20260905104616 | 67 | 302 | 3.5 | 0.0 | 0.00 | 0.00 | 0.00 | 91 | 1011.3 |